Leesburg, Virginia
Current Conditions -  °F | °C
As of 6:15 PM on Tuesday 27 Jan 2015 (Local Time) from KJYO Reporting Station
Overcast Overcast  
Wind Chill: 23°   Ceiling: 9000
Heat Index: 32°   Visibility: 10mi
Dew Point: 25°   Wind: 12mph
Humidity: 75%   Direction: 320°NW
Pressure: 29.89"   Gusts: 26mph
Location:  39.12°N, 77.56°W
Report Text: KJYO 272315Z AUTO 32010G23KT 10SM OVC090 00/M04 A2989 RMK AO2
Loading
Personal Weather Stations






























Interactive Weather Map New forecast layout! Learn more

10-Day Weather Forecast

Advertisements
Track Severe Weather on mobile